Time;durP1;ratioP1;P1;durP2;ratioP2;P2;SDS_P1;SDS_P2;PMS_P1;PMS_P2;Temp;Humidity;BMP_temperature;BMP_pressure;BME280_temperature;BME280_humidity;BME280_pressure;Samples;Min_cycle;Max_cycle;Signal;HPM_P1;HPM_P2
2023/09/10 00:00:16;;;;;;;;;;;;;;;-146.25;100.00;52037.72;2088817;28;33605;-61
2023/09/10 00:01:20;;;;;;;;;;;;;;;-146.25;100.00;52045.81;2089125;28;35634;-61
2023/09/10 00:02:22;;;;;;;;;;;;;;;-146.25;100.00;52051.91;2088378;28;36816;-61
2023/09/10 00:03:24;;;;;;;;;;;;;;;-146.25;100.00;52013.38;2088813;28;36094;-61
2023/09/10 00:04:26;;;;;;;;;;;;;;;-146.25;100.00;52037.72;2088683;28;34480;-62
2023/09/10 00:05:31;;;;;;;;;;;;;;;-146.25;100.00;52055.97;2088270;28;37541;-61
2023/09/10 00:06:33;;;;;;;;;;;;;;;-146.25;100.00;52043.78;2088485;28;32916;-62
2023/09/10 00:07:34;;;;;;;;;;;;;;;-146.25;100.00;52033.66;2088733;28;36032;-61
2023/09/10 00:08:38;;;;;;;;;;;;;;;-146.25;100.00;52035.69;2088373;28;37024;-61
2023/09/10 00:09:40;;;;;;;;;;;;;;;-146.25;100.00;52047.84;2088744;28;37608;-61
2023/09/10 00:10:42;;;;;;;;;;;;;;;-146.25;100.00;52027.56;2088332;28;37899;-62
2023/09/10 00:11:43;;;;;;;;;;;;;;;-146.25;100.00;52033.66;2089181;28;19998;-61
2023/09/10 00:12:45;;;;;;;;;;;;;;;-146.25;100.00;52068.13;2088308;28;39487;-62
2023/09/10 00:13:46;;;;;;;;;;;;;;;-146.25;100.00;52037.72;2089176;28;36060;-61
2023/09/10 00:14:48;;;;;;;;;;;;;;;-146.25;100.00;52045.81;2088284;28;32488;-62
2023/09/10 00:15:54;;;;;;;;;;;;;;;-146.25;100.00;52051.91;2088657;28;36123;-61
2023/09/10 00:16:55;;;;;;;;;;;;;;;-146.25;100.00;52029.59;2088347;28;36788;-65
2023/09/10 00:17:59;;;;;;;;;;;;;;;-146.25;100.00;52058.00;2089493;28;30593;-61
2023/09/10 00:19:01;;;;;;;;;;;;;;;-146.25;100.00;52053.94;2088240;28;35818;-61
2023/09/10 00:20:07;;;;;;;;;;;;;;;-146.25;100.00;52019.47;2089158;28;20676;-61
2023/09/10 00:21:09;;;;;;;;;;;;;;;-146.25;100.00;52027.56;2088329;28;36483;-61
2023/09/10 00:22:11;;;;;;;;;;;;;;;-146.25;100.00;52051.91;2088693;28;37763;-61
2023/09/10 00:23:13;;;;;;;;;;;;;;;-146.25;100.00;52043.78;2088542;28;33063;-61
2023/09/10 00:24:15;;;;;;;;;;;;;;;-146.25;100.00;52062.03;2088709;28;37910;-61
2023/09/10 00:25:17;;;;;;;;;;;;;;;-146.25;100.00;52060.00;2088097;28;37898;-61
2023/09/10 00:26:22;;;;;;;;;;;;;;;-146.25;100.00;52060.00;2088209;28;37711;-60
2023/09/10 00:27:24;;;;;;;;;;;;;;;-146.25;100.00;52068.13;2088875;28;19924;-61
2023/09/10 00:28:26;;;;;;;;;;;;;;;-146.25;100.00;52033.66;2088906;28;26858;-63
2023/09/10 00:29:33;;;;;;;;;;;;;;;-146.25;100.00;52088.41;2088427;28;28688;-61
2023/09/10 00:30:37;;;;;;;;;;;;;;;-146.25;100.00;52051.91;2089410;28;20826;-61
2023/09/10 00:31:38;;;;;;;;;;;;;;;-146.25;100.00;52031.63;2088429;28;23929;-62
2023/09/10 00:32:42;;;;;;;;;;;;;;;-146.25;100.00;52013.38;2089228;28;22172;-63
2023/09/10 00:33:46;;;;;;;;;;;;;;;-146.25;100.00;52076.22;2088525;28;26711;-64
2023/09/10 00:34:48;;;;;;;;;;;;;;;-146.25;100.00;52064.06;2088984;28;27675;-63
2023/09/10 00:35:50;;;;;;;;;;;;;;;-146.25;100.00;52084.34;2096589;28;19928;-65
2023/09/10 00:36:52;;;;;;;;;;;;;;;-146.25;100.00;52060.00;2097134;28;19920;-63
2023/09/10 00:37:54;;;;;;;;;;;;;;;-146.25;100.00;52068.13;2088687;28;20814;-63
2023/09/10 00:38:55;;;;;;;;;;;;;;;-146.25;100.00;52023.53;2089147;28;27961;-64
2023/09/10 00:39:59;;;;;;;;;;;;;;;-146.25;100.00;52045.81;2089035;28;28255;-63
2023/09/10 00:41:01;;;;;;;;;;;;;;;-146.25;100.00;52043.78;2088523;28;29414;-63
2023/09/10 00:42:03;;;;;;;;;;;;;;;-146.25;100.00;52051.91;2088281;28;20010;-61
2023/09/10 00:43:07;;;;;;;;;;;;;;;-146.25;100.00;52053.94;2088524;28;19939;-63
2023/09/10 00:44:09;;;;;;;;;;;;;;;-146.25;100.00;52104.63;2089175;28;19921;-63
2023/09/10 00:45:12;;;;;;;;;;;;;;;-146.25;100.00;52055.97;2089242;28;19983;-63
2023/09/10 00:46:14;;;;;;;;;;;;;;;-146.25;100.00;52060.00;2088608;28;19928;-61
2023/09/10 00:47:16;;;;;;;;;;;;;;;-146.25;100.00;52058.00;2089323;28;20063;-61
2023/09/10 00:48:18;;;;;;;;;;;;;;;-146.25;100.00;52035.69;2087468;28;27685;-63
2023/09/10 00:49:20;;;;;;;;;;;;;;;-146.25;100.00;52051.91;2088759;28;28272;-63
2023/09/10 00:50:22;;;;;;;;;;;;;;;-146.25;100.00;52039.75;2088534;28;28092;-63
2023/09/10 00:51:25;;;;;;;;;;;;;;;-146.25;100.00;52035.69;2096135;28;30242;-63
2023/09/10 00:52:29;;;;;;;;;;;;;;;-146.25;100.00;52096.50;2096589;28;20057;-62
2023/09/10 00:53:33;;;;;;;;;;;;;;;-146.25;100.00;52031.63;2088687;28;30187;-63
2023/09/10 00:54:35;;;;;;;;;;;;;;;-146.25;100.00;52047.84;2096068;28;33132;-62
2023/09/10 00:55:37;;;;;;;;;;;;;;;-146.25;100.00;52049.88;2088017;28;20921;-62
2023/09/10 00:56:42;;;;;;;;;;;;;;;-146.25;100.00;52055.97;2088113;28;20075;-64
2023/09/10 00:57:46;;;;;;;;;;;;;;;-146.25;100.00;52053.94;2089489;28;19924;-64
2023/09/10 00:58:48;;;;;;;;;;;;;;;-146.25;100.00;52045.81;2087985;28;29233;-62
2023/09/10 00:59:50;;;;;;;;;;;;;;;-146.25;100.00;52049.88;2089054;28;26931;-64
2023/09/10 01:00:52;;;;;;;;;;;;;;;-146.25;100.00;52055.97;2095859;28;32164;-64
2023/09/10 01:01:54;;;;;;;;;;;;;;;-146.25;100.00;52017.44;2096617;28;20030;-65
2023/09/10 01:02:58;;;;;;;;;;;;;;;-146.25;100.00;52070.16;2089431;28;20822;-64
2023/09/10 01:04:00;;;;;;;;;;;;;;;-146.25;100.00;52043.78;2088778;28;27407;-65
2023/09/10 01:05:03;;;;;;;;;;;;;;;-146.25;100.00;52043.78;2088301;28;28057;-64
2023/09/10 01:06:04;;;;;;;;;;;;;;;-146.25;100.00;52070.16;2088829;28;25389;-64
2023/09/10 01:07:06;;;;;;;;;;;;;;;-146.25;100.00;52047.84;2087376;28;32121;-64
2023/09/10 01:08:08;;;;;;;;;;;;;;;-146.25;100.00;52055.97;2088899;28;19971;-64
2023/09/10 01:09:09;;;;;;;;;;;;;;;-146.25;100.00;52041.75;2088620;28;25945;-64
2023/09/10 01:10:11;;;;;;;;;;;;;;;-146.25;100.00;52076.22;2088793;28;35281;-64
2023/09/10 01:11:31;;;;;;;;;;;;;;;-146.25;100.00;52031.63;2087542;28;27974;-64
2023/09/10 01:12:43;;;;;;;;;;;;;;;-146.25;100.00;52068.13;2088297;28;29033;-64
2023/09/10 01:14:01;;;;;;;;;;;;;;;-146.25;100.00;52074.22;2096540;28;20887;-63
2023/09/10 01:15:11;;;;;;;;;;;;;;;-146.25;100.00;52039.75;2093874;28;31020;-64
2023/09/10 01:16:32;;;;;;;;;;;;;;;-146.25;100.00;52060.00;2088449;28;32786;-63
2023/09/10 01:17:45;;;;;;;;;;;;;;;-146.25;100.00;52039.75;2096596;28;20745;-64
2023/09/10 01:18:55;;;;;;;;;;;;;;;-146.25;100.00;52082.31;2095303;28;23110;-64
2023/09/10 01:19:59;;;;;;;;;;;;;;;-146.25;100.00;52027.56;2088901;28;23985;-64
2023/09/10 01:21:29;;;;;;;;;;;;;;;-146.25;100.00;52051.91;2088621;28;19979;-64
2023/09/10 01:23:08;;;;;;;;;;;;;;;-146.25;100.00;52076.22;2089191;28;19932;-65
2023/09/10 01:24:35;;;;;;;;;;;;;;;-146.25;100.00;52055.97;2074781;28;30720;-65
2023/09/10 01:25:40;;;;;;;;;;;;;;;-146.25;100.00;52058.00;2083484;28;19986;-65
2023/09/10 01:26:42;;;;;;;;;;;;;;;-146.25;100.00;52064.06;2087957;28;31935;-65
2023/09/10 01:27:44;;;;;;;;;;;;;;;-146.25;100.00;52060.00;2095892;28;34730;-65
2023/09/10 01:28:46;;;;;;;;;;;;;;;-146.25;100.00;52088.41;2096742;28;19925;-65
2023/09/10 01:29:48;;;;;;;;;;;;;;;-146.25;100.00;52064.06;2087990;28;32709;-66
2023/09/10 01:30:49;;;;;;;;;;;;;;;-146.25;100.00;52055.97;2087603;28;24031;-65
2023/09/10 01:31:57;;;;;;;;;;;;;;;-146.25;100.00;52045.81;2087967;28;19921;-65
2023/09/10 01:33:12;;;;;;;;;;;;;;;-146.25;100.00;52068.13;2088149;28;29358;-65
2023/09/10 01:34:16;;;;;;;;;;;;;;;-146.25;100.00;52055.97;2088274;28;23674;-65
2023/09/10 01:35:43;;;;;;;;;;;;;;;-146.25;100.00;52039.75;2088750;28;23986;-65
2023/09/10 01:36:51;;;;;;;;;;;;;;;-146.25;100.00;52055.97;2088568;28;32187;-65
2023/09/10 01:38:06;;;;;;;;;;;;;;;-146.25;100.00;52051.91;2088253;28;33346;-65
2023/09/10 01:39:36;;;;;;;;;;;;;;;-146.25;100.00;52076.22;2089398;28;21108;-65
2023/09/10 01:40:56;;;;;;;;;;;;;;;-146.25;100.00;52064.06;2087734;28;29344;-65
2023/09/10 01:41:59;;;;;;;;;;;;;;;-146.25;100.00;52062.03;2088530;28;30998;-65
2023/09/10 01:43:05;;;;;;;;;;;;;;;-146.25;100.00;52078.25;2088136;28;19964;-65
2023/09/10 01:44:08;;;;;;;;;;;;;;;-146.25;100.00;52084.34;2087598;28;39177;-65
2023/09/10 01:45:11;;;;;;;;;;;;;;;-146.25;100.00;52092.44;2088334;28;31106;-65
2023/09/10 01:46:14;;;;;;;;;;;;;;;-146.25;100.00;52064.06;2096004;28;24902;-65
2023/09/10 01:47:17;;;;;;;;;;;;;;;-146.25;100.00;52070.16;2087480;28;34228;-65
2023/09/10 01:48:19;;;;;;;;;;;;;;;-146.25;100.00;52076.22;2088251;28;19913;-65
2023/09/10 01:49:20;;;;;;;;;;;;;;;-146.25;100.00;52090.44;2095831;28;34983;-66
2023/09/10 01:50:24;;;;;;;;;;;;;;;-146.25;100.00;52084.34;2087180;28;37664;-65
2023/09/10 01:51:26;;;;;;;;;;;;;;;-146.25;100.00;52070.16;2088581;28;20058;-65
2023/09/10 01:52:28;;;;;;;;;;;;;;;-146.25;100.00;52072.19;2096054;28;25179;-65
2023/09/10 01:53:30;;;;;;;;;;;;;;;-146.25;100.00;52047.84;2096578;28;19925;-63
2023/09/10 01:54:31;;;;;;;;;;;;;;;-146.25;100.00;52080.28;2088458;28;31493;-63
2023/09/10 01:55:33;;;;;;;;;;;;;;;-146.25;100.00;52064.06;2088407;28;20130;-63
2023/09/10 01:56:35;;;;;;;;;;;;;;;-146.25;100.00;52090.44;2087841;28;19928;-63
2023/09/10 01:57:36;;;;;;;;;;;;;;;-146.25;100.00;52076.22;2087540;28;34361;-64
2023/09/10 01:58:40;;;;;;;;;;;;;;;-146.25;100.00;52106.66;2088210;28;20790;-64
2023/09/10 01:59:42;;;;;;;;;;;;;;;-146.25;100.00;52058.00;2081175;28;20917;-63
2023/09/10 02:00:45;;;;;;;;;;;;;;;-146.25;100.00;52074.22;2088311;28;19925;-65
2023/09/10 02:01:46;;;;;;;;;;;;;;;-146.25;100.00;52043.78;2097310;28;22768;-63
2023/09/10 02:02:50;;;;;;;;;;;;;;;-146.25;100.00;52062.03;2089984;28;19921;-63
2023/09/10 02:03:52;;;;;;;;;;;;;;;-146.25;100.00;52064.06;2088531;28;28192;-64
2023/09/10 02:04:54;;;;;;;;;;;;;;;-146.25;100.00;52068.13;2088808;28;28731;-64
2023/09/10 02:05:57;;;;;;;;;;;;;;;-146.25;100.00;52092.44;2089564;28;27042;-63
2023/09/10 02:06:59;;;;;;;;;;;;;;;-146.25;100.00;52080.28;2090208;28;19947;-63
2023/09/10 02:08:01;;;;;;;;;;;;;;;-146.25;100.00;52068.13;2089783;28;26491;-63
2023/09/10 02:09:02;;;;;;;;;;;;;;;-146.25;100.00;52070.16;2089341;28;19995;-63
2023/09/10 02:10:05;;;;;;;;;;;;;;;-146.25;100.00;52080.28;2080374;28;36542;-63
2023/09/10 02:11:07;;;;;;;;;;;;;;;-146.25;100.00;52102.59;2088857;28;30844;-64
2023/09/10 02:12:11;;;;;;;;;;;;;;;-146.25;100.00;52092.44;2089730;28;20810;-63
2023/09/10 02:13:14;;;;;;;;;;;;;;;-146.25;100.00;52072.19;2089381;28;37108;-64
2023/09/10 02:14:16;;;;;;;;;;;;;;;-146.25;100.00;52060.00;2090092;28;27571;-64
2023/09/10 02:15:18;;;;;;;;;;;;;;;-146.25;100.00;52098.53;2089419;28;19995;-63
2023/09/10 02:16:20;;;;;;;;;;;;;;;-146.25;100.00;52092.44;2089041;28;19979;-63
2023/09/10 02:17:24;;;;;;;;;;;;;;;-146.25;100.00;52064.06;2089443;28;20211;-63
2023/09/10 02:18:28;;;;;;;;;;;;;;;-146.25;100.00;52096.50;2088734;28;33666;-63
2023/09/10 02:19:31;;;;;;;;;;;;;;;-146.25;100.00;52084.34;2090432;28;19925;-64
2023/09/10 02:20:35;;;;;;;;;;;;;;;-146.25;100.00;52088.41;2089582;28;20995;-63
2023/09/10 02:21:37;;;;;;;;;;;;;;;-146.25;100.00;52053.94;2088967;28;33965;-64
2023/09/10 02:22:39;;;;;;;;;;;;;;;-146.25;100.00;52070.16;2089756;28;29629;-62
2023/09/10 02:23:45;;;;;;;;;;;;;;;-146.25;100.00;52092.44;2089132;28;24514;-63
2023/09/10 02:24:50;;;;;;;;;;;;;;;-146.25;100.00;52088.41;2088961;28;30395;-63
2023/09/10 02:25:52;;;;;;;;;;;;;;;-146.25;100.00;52092.44;2089853;28;20682;-64
2023/09/10 02:26:53;;;;;;;;;;;;;;;-146.25;100.00;52098.53;2089089;28;30050;-63
2023/09/10 02:27:56;;;;;;;;;;;;;;;-146.25;100.00;52053.94;2090254;28;20865;-64
2023/09/10 02:28:58;;;;;;;;;;;;;;;-146.25;100.00;52033.66;2090034;28;19920;-63
2023/09/10 02:29:59;;;;;;;;;;;;;;;-146.25;100.00;52051.91;2089737;28;26633;-64
2023/09/10 02:31:07;;;;;;;;;;;;;;;-146.25;100.00;52084.34;2089640;28;27422;-63
2023/09/10 02:32:09;;;;;;;;;;;;;;;-146.25;100.00;52092.44;2089255;28;27769;-64
2023/09/10 02:33:11;;;;;;;;;;;;;;;-146.25;100.00;52058.00;2096826;28;31876;-63
2023/09/10 02:34:12;;;;;;;;;;;;;;;-146.25;100.00;52084.34;2097346;28;19920;-64
2023/09/10 02:35:14;;;;;;;;;;;;;;;-146.25;100.00;52072.19;2089545;28;27220;-64
2023/09/10 02:36:18;;;;;;;;;;;;;;;-146.25;100.00;52100.56;2090285;28;21017;-64
2023/09/10 02:37:21;;;;;;;;;;;;;;;-146.25;100.00;52084.34;2089040;28;19929;-63
2023/09/10 02:38:27;;;;;;;;;;;;;;;-146.25;100.00;52088.41;2089028;28;30562;-64
2023/09/10 02:39:46;;;;;;;;;;;;;;;-146.25;100.00;52098.53;2090128;28;19975;-64
2023/09/10 02:41:03;;;;;;;;;;;;;;;-146.25;100.00;52060.00;2096753;28;20117;-64
2023/09/10 02:42:04;;;;;;;;;;;;;;;-146.25;100.00;52078.25;2089204;28;20718;-63
2023/09/10 02:43:06;;;;;;;;;;;;;;;-146.25;100.00;52100.56;2088978;28;22259;-64
2023/09/10 02:44:08;;;;;;;;;;;;;;;-146.25;100.00;52108.66;2097540;28;19921;-64
2023/09/10 02:45:14;;;;;;;;;;;;;;;-146.25;100.00;52045.81;2097375;28;19913;-64
2023/09/10 02:46:15;;;;;;;;;;;;;;;-146.25;100.00;52088.41;2090209;28;21268;-64
2023/09/10 02:47:17;;;;;;;;;;;;;;;-146.25;100.00;52092.44;2089482;28;21094;-64
2023/09/10 02:48:18;;;;;;;;;;;;;;;-146.25;100.00;52088.41;2089365;28;20032;-64
2023/09/10 02:49:20;;;;;;;;;;;;;;;-146.25;100.00;52084.34;2088629;28;27515;-65
2023/09/10 02:50:24;;;;;;;;;;;;;;;-146.25;100.00;52086.38;2097285;28;20047;-64
2023/09/10 02:51:29;;;;;;;;;;;;;;;-146.25;100.00;52088.41;2096853;28;20043;-64
2023/09/10 02:52:30;;;;;;;;;;;;;;;-146.25;100.00;52084.34;2097845;28;20037;-64
2023/09/10 02:53:32;;;;;;;;;;;;;;;-146.25;100.00;52088.41;2097648;28;19925;-63
2023/09/10 02:54:35;;;;;;;;;;;;;;;-146.25;100.00;52130.97;2097411;28;20955;-63
2023/09/10 02:55:39;;;;;;;;;;;;;;;-146.25;100.00;52092.44;2088519;28;19917;-64
2023/09/10 02:56:41;;;;;;;;;;;;;;;-146.25;100.00;52072.19;2088994;28;29114;-63
2023/09/10 02:57:42;;;;;;;;;;;;;;;-146.25;100.00;52104.63;2089646;28;19920;-63
2023/09/10 02:58:44;;;;;;;;;;;;;;;-146.25;100.00;52055.97;2090089;28;27266;-63
2023/09/10 02:59:48;;;;;;;;;;;;;;;-146.25;100.00;52116.78;2088930;28;19999;-64
2023/09/10 03:00:49;;;;;;;;;;;;;;;-146.25;100.00;52082.31;2080932;28;20857;-64
2023/09/10 03:01:52;;;;;;;;;;;;;;;-146.25;100.00;52033.66;2088695;28;27293;-64
2023/09/10 03:02:55;;;;;;;;;;;;;;;-146.25;100.00;52090.44;2089179;28;19917;-64
2023/09/10 03:03:57;;;;;;;;;;;;;;;-146.25;100.00;52098.53;2088735;28;23179;-64
2023/09/10 03:04:59;;;;;;;;;;;;;;;-146.25;100.00;52088.41;2089406;28;24943;-64
2023/09/10 03:06:01;;;;;;;;;;;;;;;-146.25;100.00;52064.06;2097269;28;19920;-64
2023/09/10 03:07:03;;;;;;;;;;;;;;;-146.25;100.00;52058.00;2089190;28;20887;-64
2023/09/10 03:08:07;;;;;;;;;;;;;;;-146.25;100.00;52066.09;2080301;28;27812;-63
2023/09/10 03:09:08;;;;;;;;;;;;;;;-146.25;100.00;52098.53;2089322;28;20767;-64
2023/09/10 03:10:10;;;;;;;;;;;;;;;-146.25;100.00;52086.38;2088888;28;20104;-64
2023/09/10 03:11:12;;;;;;;;;;;;;;;-146.25;100.00;52060.00;2088132;28;22855;-63
2023/09/10 03:12:27;;;;;;;;;;;;;;;-146.25;100.00;52118.81;2088984;28;23192;-64
2023/09/10 03:13:31;;;;;;;;;;;;;;;-146.25;100.00;52064.06;2089159;28;19932;-65
2023/09/10 03:14:33;;;;;;;;;;;;;;;-146.25;100.00;52039.75;2088759;28;20762;-64
2023/09/10 03:15:35;;;;;;;;;;;;;;;-146.25;100.00;52088.41;2088583;28;19921;-65
2023/09/10 03:16:42;;;;;;;;;;;;;;;-146.25;100.00;52082.31;2088615;28;23661;-64
2023/09/10 03:17:45;;;;;;;;;;;;;;;-146.25;100.00;52104.63;2080527;28;19971;-65
2023/09/10 03:18:47;;;;;;;;;;;;;;;-146.25;100.00;52070.16;2080721;28;19926;-64
2023/09/10 03:19:50;;;;;;;;;;;;;;;-146.25;100.00;52080.28;2072738;28;20778;-65
2023/09/10 03:20:54;;;;;;;;;;;;;;;-146.25;100.00;52084.34;2072040;28;19921;-65
2023/09/10 03:21:56;;;;;;;;;;;;;;;-146.25;100.00;52096.50;2081676;28;20149;-64
2023/09/10 03:22:59;;;;;;;;;;;;;;;-146.25;100.00;52051.91;2081098;28;26286;-65
2023/09/10 03:24:01;;;;;;;;;;;;;;;-146.25;100.00;52060.00;2080716;28;19917;-65
2023/09/10 03:25:03;;;;;;;;;;;;;;;-146.25;100.00;52092.44;2080688;28;20014;-64
2023/09/10 03:26:05;;;;;;;;;;;;;;;-146.25;100.00;52088.41;2080835;28;19922;-64
2023/09/10 03:27:08;;;;;;;;;;;;;;;-146.25;100.00;52074.22;2088752;28;19924;-64
2023/09/10 03:28:12;;;;;;;;;;;;;;;-146.25;100.00;52080.28;2088671;28;19933;-65
2023/09/10 03:29:13;;;;;;;;;;;;;;;-146.25;100.00;52120.84;2080608;28;19933;-64
2023/09/10 03:30:16;;;;;;;;;;;;;;;-146.25;100.00;52088.41;2080157;28;33318;-65
2023/09/10 03:31:18;;;;;;;;;;;;;;;-146.25;100.00;52078.25;2080986;28;22165;-64
2023/09/10 03:32:21;;;;;;;;;;;;;;;-146.25;100.00;52088.41;2080864;28;20817;-64
2023/09/10 03:33:24;;;;;;;;;;;;;;;-146.25;100.00;52078.25;2072454;28;19925;-64
2023/09/10 03:34:27;;;;;;;;;;;;;;;-146.25;100.00;52084.34;2080874;28;19927;-63
2023/09/10 03:35:29;;;;;;;;;;;;;;;-146.25;100.00;52070.16;2080256;28;20984;-63
2023/09/10 03:36:30;;;;;;;;;;;;;;;-146.25;100.00;52141.13;2072326;28;27773;-64
2023/09/10 03:37:32;;;;;;;;;;;;;;;-146.25;100.00;52082.31;2064233;28;20020;-64
2023/09/10 03:38:35;;;;;;;;;;;;;;;-146.25;100.00;52100.56;2072656;28;20798;-65
2023/09/10 03:39:36;;;;;;;;;;;;;;;-146.25;100.00;52090.44;2079936;28;29950;-63
2023/09/10 03:40:40;;;;;;;;;;;;;;;-146.25;100.00;52076.22;2072690;28;20024;-64
2023/09/10 03:41:42;;;;;;;;;;;;;;;-146.25;100.00;52080.28;2072227;28;19975;-63
2023/09/10 03:42:43;;;;;;;;;;;;;;;-146.25;100.00;52118.81;2080818;28;19925;-64
2023/09/10 03:43:45;;;;;;;;;;;;;;;-146.25;100.00;52092.44;2088751;28;20055;-63
2023/09/10 03:44:46;;;;;;;;;;;;;;;-146.25;100.00;52070.16;2080602;28;19917;-63
2023/09/10 03:45:48;;;;;;;;;;;;;;;-146.25;100.00;52102.59;2072506;28;19980;-64
2023/09/10 03:46:53;;;;;;;;;;;;;;;-146.25;100.00;52110.69;2080907;28;19957;-63
2023/09/10 03:47:55;;;;;;;;;;;;;;;-146.25;100.00;52066.09;2080627;28;19932;-63
2023/09/10 03:48:56;;;;;;;;;;;;;;;-146.25;100.00;52090.44;2080275;28;22880;-63
2023/09/10 03:49:58;;;;;;;;;;;;;;;-146.25;100.00;52084.34;2080634;28;19926;-63
2023/09/10 03:51:02;;;;;;;;;;;;;;;-146.25;100.00;52102.59;2080627;28;19993;-64
2023/09/10 03:52:24;;;;;;;;;;;;;;;-146.25;100.00;52112.72;2080560;28;19929;-64
2023/09/10 03:53:25;;;;;;;;;;;;;;;-146.25;100.00;52080.28;2080127;28;20742;-64
2023/09/10 03:54:27;;;;;;;;;;;;;;;-146.25;100.00;52035.69;2072216;28;21818;-63
2023/09/10 03:55:29;;;;;;;;;;;;;;;-146.25;100.00;52086.38;2071763;28;22772;-65
2023/09/10 03:56:30;;;;;;;;;;;;;;;-146.25;100.00;52096.50;2080260;28;27080;-63
2023/09/10 03:57:32;;;;;;;;;;;;;;;-146.25;100.00;52108.66;2088640;28;24606;-63
2023/09/10 03:58:34;;;;;;;;;;;;;;;-146.25;100.00;52090.44;2080238;28;19928;-63
2023/09/10 03:59:36;;;;;;;;;;;;;;;-146.25;100.00;52096.50;2080792;28;19933;-64
2023/09/10 04:00:38;;;;;;;;;;;;;;;-146.25;100.00;52106.66;2080162;28;20055;-63
2023/09/10 04:01:40;;;;;;;;;;;;;;;-146.25;100.00;52112.72;2080379;28;34298;-62
2023/09/10 04:02:42;;;;;;;;;;;;;;;-146.25;100.00;52102.59;2080732;28;30576;-63
2023/09/10 04:03:47;;;;;;;;;;;;;;;-146.25;100.00;52084.34;2088694;28;19932;-63
2023/09/10 04:04:48;;;;;;;;;;;;;;;-146.25;100.00;52076.22;2088278;28;28925;-63
2023/09/10 04:05:50;;;;;;;;;;;;;;;-146.25;100.00;52096.50;2081461;28;20707;-64
2023/09/10 04:06:52;;;;;;;;;;;;;;;-146.25;100.00;52135.03;2088601;28;19979;-64
2023/09/10 04:07:55;;;;;;;;;;;;;;;-146.25;100.00;52072.19;2080000;28;34415;-64
2023/09/10 04:08:57;;;;;;;;;;;;;;;-146.25;100.00;52076.22;2080247;28;25572;-63
2023/09/10 04:09:58;;;;;;;;;;;;;;;-146.25;100.00;52088.41;2080805;28;23834;-64
2023/09/10 04:11:00;;;;;;;;;;;;;;;-146.25;100.00;52098.53;2080889;28;20831;-64
2023/09/10 04:12:01;;;;;;;;;;;;;;;-146.25;100.00;52104.63;2080830;28;31295;-66
2023/09/10 04:13:04;;;;;;;;;;;;;;;-146.25;100.00;52108.66;2081019;28;27457;-65
2023/09/10 04:14:05;;;;;;;;;;;;;;;-146.25;100.00;52112.72;2080638;28;30621;-66
2023/09/10 04:15:07;;;;;;;;;;;;;;;-146.25;100.00;52084.34;2080806;28;19968;-66
2023/09/10 04:16:09;;;;;;;;;;;;;;;-146.25;100.00;52100.56;2083828;28;19910;-66
2023/09/10 04:17:15;;;;;;;;;;;;;;;-146.25;100.00;52096.50;2088565;28;32548;-66
2023/09/10 04:18:17;;;;;;;;;;;;;;;-146.25;100.00;52076.22;2088526;28;20540;-65
2023/09/10 04:19:22;;;;;;;;;;;;;;;-146.25;100.00;52082.31;2080682;28;19977;-63
2023/09/10 04:20:23;;;;;;;;;;;;;;;-146.25;100.00;52084.34;2088379;28;24179;-65
2023/09/10 04:21:30;;;;;;;;;;;;;;;-146.25;100.00;52082.31;2088889;28;20757;-63
2023/09/10 04:22:31;;;;;;;;;;;;;;;-146.25;100.00;52112.72;2088347;28;27645;-64
2023/09/10 04:23:33;;;;;;;;;;;;;;;-146.25;100.00;52112.72;2087938;28;21634;-63
2023/09/10 04:24:35;;;;;;;;;;;;;;;-146.25;100.00;52096.50;2088503;28;19933;-63
2023/09/10 04:25:37;;;;;;;;;;;;;;;-146.25;100.00;52126.91;2096694;28;19978;-64
2023/09/10 04:26:38;;;;;;;;;;;;;;;-146.25;100.00;52137.06;2088309;28;19988;-64
2023/09/10 04:27:42;;;;;;;;;;;;;;;-146.25;100.00;52130.97;2087986;28;23653;-64
2023/09/10 04:28:44;;;;;;;;;;;;;;;-146.25;100.00;52094.47;2088986;28;19992;-63
2023/09/10 04:29:46;;;;;;;;;;;;;;;-146.25;100.00;52130.97;2080329;28;19917;-58
2023/09/10 04:30:50;;;;;;;;;;;;;;;-146.25;100.00;52112.72;2088231;28;19921;-63
2023/09/10 04:31:52;;;;;;;;;;;;;;;-146.25;100.00;52076.22;2088503;28;19925;-64
2023/09/10 04:32:55;;;;;;;;;;;;;;;-146.25;100.00;52108.66;2088427;28;20059;-64
2023/09/10 04:33:57;;;;;;;;;;;;;;;-146.25;100.00;52100.56;2088483;28;19948;-63
2023/09/10 04:35:01;;;;;;;;;;;;;;;-146.25;100.00;52094.47;2088452;28;20036;-63
2023/09/10 04:36:02;;;;;;;;;;;;;;;-146.25;100.00;52096.50;2088609;28;28482;-63
2023/09/10 04:37:04;;;;;;;;;;;;;;;-146.25;100.00;52102.59;2089343;28;20822;-64
2023/09/10 04:38:06;;;;;;;;;;;;;;;-146.25;100.00;52076.22;2088470;28;20080;-63
2023/09/10 04:39:10;;;;;;;;;;;;;;;-146.25;100.00;52124.91;2088646;28;19924;-64
2023/09/10 04:40:15;;;;;;;;;;;;;;;-146.25;100.00;52112.72;2088110;28;20886;-63
2023/09/10 04:41:17;;;;;;;;;;;;;;;-146.25;100.00;52100.56;2088106;28;25001;-63
2023/09/10 04:42:18;;;;;;;;;;;;;;;-146.25;100.00;52096.50;2088113;28;20963;-64
2023/09/10 04:43:23;;;;;;;;;;;;;;;-146.25;100.00;52100.56;2079658;28;19948;-63
2023/09/10 04:44:24;;;;;;;;;;;;;;;-146.25;100.00;52104.63;2088688;28;20798;-63
2023/09/10 04:45:26;;;;;;;;;;;;;;;-146.25;100.00;52118.81;2089302;28;19936;-63
2023/09/10 04:46:28;;;;;;;;;;;;;;;-146.25;100.00;52100.56;2096585;28;19917;-63
2023/09/10 04:47:32;;;;;;;;;;;;;;;-146.25;100.00;52114.75;2088359;28;19929;-62
2023/09/10 04:48:34;;;;;;;;;;;;;;;-146.25;100.00;52118.81;2079734;28;19929;-63
2023/09/10 04:49:36;;;;;;;;;;;;;;;-146.25;100.00;52078.25;2088161;28;32109;-63
2023/09/10 04:50:37;;;;;;;;;;;;;;;-146.25;100.00;52112.72;2096824;28;20074;-63
2023/09/10 04:51:39;;;;;;;;;;;;;;;-146.25;100.00;52122.88;2096894;28;19920;-64
2023/09/10 04:52:41;;;;;;;;;;;;;;;-146.25;100.00;52122.88;2096695;28;19925;-63
2023/09/10 04:53:46;;;;;;;;;;;;;;;-146.25;100.00;52104.63;2096792;28;19909;-63
2023/09/10 04:54:49;;;;;;;;;;;;;;;-146.25;100.00;52126.91;2096267;28;29488;-63
2023/09/10 04:55:56;;;;;;;;;;;;;;;-146.25;100.00;52100.56;2088367;28;19934;-63
2023/09/10 04:56:59;;;;;;;;;;;;;;;-146.25;100.00;52066.09;2081036;28;20730;-64
2023/09/10 04:58:02;;;;;;;;;;;;;;;-146.25;100.00;52104.63;2080354;28;19921;-63
2023/09/10 04:59:04;;;;;;;;;;;;;;;-146.25;100.00;52106.66;2080158;28;19913;-63
2023/09/10 05:00:08;;;;;;;;;;;;;;;-146.25;100.00;52118.81;2080052;28;19921;-63
2023/09/10 05:01:10;;;;;;;;;;;;;;;-146.25;100.00;52153.28;2079874;28;21327;-63
2023/09/10 05:02:12;;;;;;;;;;;;;;;-146.25;100.00;52088.41;2088216;28;19932;-64
2023/09/10 05:03:14;;;;;;;;;;;;;;;-146.25;100.00;52104.63;2088255;28;21018;-64
2023/09/10 05:04:18;;;;;;;;;;;;;;;-146.25;100.00;52090.44;2088141;28;24408;-64
2023/09/10 05:05:19;;;;;;;;;;;;;;;-146.25;100.00;52114.75;2096186;28;19927;-65
2023/09/10 05:06:21;;;;;;;;;;;;;;;-146.25;100.00;52104.63;2096628;28;26455;-66
2023/09/10 05:07:23;;;;;;;;;;;;;;;-146.25;100.00;52118.81;2088037;28;19994;-66
2023/09/10 05:08:27;;;;;;;;;;;;;;;-146.25;100.00;52130.97;2079977;28;19925;-66
2023/09/10 05:09:31;;;;;;;;;;;;;;;-146.25;100.00;52096.50;2079995;28;19991;-66
2023/09/10 05:10:33;;;;;;;;;;;;;;;-146.25;100.00;52104.63;2080224;28;19983;-66
2023/09/10 05:11:34;;;;;;;;;;;;;;;-146.25;100.00;52157.34;2087819;28;28067;-66
2023/09/10 05:12:36;;;;;;;;;;;;;;;-146.25;100.00;52137.06;2097043;28;19925;-65
2023/09/10 05:13:38;;;;;;;;;;;;;;;-146.25;100.00;52064.06;2087968;28;19921;-65
2023/09/10 05:14:40;;;;;;;;;;;;;;;-146.25;100.00;52141.13;2087887;28;19921;-65
2023/09/10 05:15:41;;;;;;;;;;;;;;;-146.25;100.00;52124.91;2087920;28;20095;-65
2023/09/10 05:16:45;;;;;;;;;;;;;;;-146.25;100.00;52112.72;2087577;28;19921;-65
2023/09/10 05:17:47;;;;;;;;;;;;;;;-146.25;100.00;52128.94;2071489;28;19914;-65
2023/09/10 05:18:49;;;;;;;;;;;;;;;-146.25;100.00;52106.66;2071717;28;19917;-66